createdAt,value
2018-05-25T00:00:59.639Z,16.80
2018-05-25T00:03:27.112Z,16.80
2018-05-25T00:05:54.569Z,16.90
2018-05-25T00:08:22.020Z,17.00
2018-05-25T00:10:49.471Z,16.80
2018-05-25T00:13:16.941Z,16.80
2018-05-25T00:15:44.403Z,17.00
2018-05-25T00:18:11.869Z,17.20
2018-05-25T00:20:39.316Z,17.30
2018-05-25T00:23:06.774Z,17.30
2018-05-25T00:25:34.215Z,17.30
2018-05-25T00:28:02.445Z,17.30
2018-05-25T00:30:29.896Z,17.30
2018-05-25T00:32:57.347Z,17.40
2018-05-25T00:35:24.787Z,17.30
2018-05-25T00:37:53.099Z,17.20
2018-05-25T00:40:20.494Z,17.20
2018-05-25T00:42:47.951Z,17.20
2018-05-25T00:45:15.410Z,17.10
2018-05-25T00:47:42.870Z,17.10
2018-05-25T00:50:10.325Z,17.10
2018-05-25T00:52:37.772Z,17.20
2018-05-25T00:55:17.079Z,17.20
2018-05-25T00:57:45.289Z,17.10
2018-05-25T01:00:12.727Z,17.10
2018-05-25T01:02:40.176Z,17.10
2018-05-25T01:05:08.387Z,17.00
2018-05-25T01:07:35.843Z,17.00
2018-05-25T01:10:03.287Z,17.00
2018-05-25T01:12:30.747Z,17.00
2018-05-25T01:14:58.200Z,17.00
2018-05-25T01:17:26.412Z,16.90
2018-05-25T01:19:53.862Z,16.80
2018-05-25T01:22:21.304Z,16.80
2018-05-25T01:24:49.525Z,16.70
2018-05-25T01:27:16.983Z,16.70
2018-05-25T01:29:44.436Z,16.70
2018-05-25T01:32:11.878Z,16.80
2018-05-25T01:34:40.097Z,16.80
2018-05-25T01:37:07.550Z,16.70
2018-05-25T01:39:35.003Z,16.90
2018-05-25T01:42:02.457Z,16.90
2018-05-25T01:44:29.920Z,16.80
2018-05-25T01:46:57.388Z,16.70
2018-05-25T01:49:24.840Z,16.60
2018-05-25T01:51:52.295Z,16.60
2018-05-25T01:54:20.509Z,16.70
2018-05-25T01:56:47.952Z,16.60
2018-05-25T01:59:15.422Z,16.70
2018-05-25T02:01:43.624Z,16.60
2018-05-25T02:04:11.081Z,16.60
2018-05-25T02:06:38.524Z,16.60
2018-05-25T02:09:05.985Z,16.60
2018-05-25T02:11:33.433Z,16.60
2018-05-25T02:14:01.725Z,16.70
2018-05-25T02:16:29.165Z,16.60
2018-05-25T02:18:57.372Z,16.40
2018-05-25T02:21:24.819Z,16.30
2018-05-25T02:23:52.287Z,16.30
2018-05-25T02:26:19.740Z,16.20
2018-05-25T02:28:47.199Z,16.00
2018-05-25T02:31:14.664Z,15.90
2018-05-25T02:33:42.130Z,15.80
2018-05-25T02:36:09.590Z,16.00
2018-05-25T02:38:37.117Z,16.10
2018-05-25T02:41:04.496Z,16.10
2018-05-25T02:43:32.714Z,15.90
2018-05-25T02:46:00.174Z,15.90
2018-05-25T02:48:27.634Z,16.00
2018-05-25T02:50:55.086Z,16.00
2018-05-25T02:53:22.531Z,16.10
2018-05-25T02:55:50.768Z,16.10
2018-05-25T02:58:18.209Z,16.10
2018-05-25T03:00:45.671Z,16.10
2018-05-25T03:03:13.102Z,16.00
2018-05-25T03:05:41.327Z,15.90
2018-05-25T03:08:08.772Z,15.80
2018-05-25T03:10:36.252Z,15.90
2018-05-25T03:13:03.724Z,16.00
2018-05-25T03:15:31.192Z,16.00
2018-05-25T03:17:58.641Z,16.00
2018-05-25T03:20:26.104Z,15.80
2018-05-25T03:22:53.565Z,15.80
2018-05-25T03:25:21.036Z,16.00
2018-05-25T03:27:48.513Z,16.00
2018-05-25T03:30:15.955Z,15.90
2018-05-25T03:32:43.413Z,16.00
2018-05-25T03:35:10.861Z,15.90
2018-05-25T03:37:38.313Z,15.90
2018-05-25T03:40:05.781Z,15.90
2018-05-25T03:42:33.238Z,15.90
2018-05-25T03:45:00.674Z,15.80
2018-05-25T03:47:28.905Z,15.80
2018-05-25T03:49:56.367Z,15.70
2018-05-25T03:52:23.829Z,15.60
2018-05-25T03:54:51.292Z,15.50
2018-05-25T03:57:18.764Z,15.30
2018-05-25T03:59:58.011Z,15.20
2018-05-25T04:02:25.486Z,15.20
2018-05-25T04:04:53.736Z,15.10
2018-05-25T04:07:21.249Z,15.00
2018-05-25T04:09:52.174Z,15.10
2018-05-25T04:12:19.610Z,15.10
2018-05-25T04:14:47.212Z,15.10
2018-05-25T04:17:15.445Z,15.10
2018-05-25T04:19:42.907Z,15.10
2018-05-25T04:22:10.375Z,15.20
2018-05-25T04:24:37.848Z,15.40
2018-05-25T04:27:05.293Z,15.50
2018-05-25T04:29:32.753Z,15.60
2018-05-25T04:32:00.193Z,15.70
2018-05-25T04:34:27.731Z,15.70
2018-05-25T04:36:55.958Z,15.70
2018-05-25T04:39:23.406Z,15.60
2018-05-25T04:41:50.847Z,15.70
2018-05-25T04:44:18.296Z,15.70
2018-05-25T04:46:46.517Z,15.70
2018-05-25T04:49:13.967Z,15.80
2018-05-25T04:51:41.401Z,15.80
2018-05-25T04:54:09.632Z,15.90
2018-05-25T04:56:37.091Z,15.90
2018-05-25T04:59:04.545Z,16.00
2018-05-25T05:01:31.991Z,16.00
2018-05-25T05:03:59.447Z,15.90
2018-05-25T05:06:26.893Z,15.90
2018-05-25T05:08:55.119Z,16.10
2018-05-25T05:11:22.568Z,16.10
2018-05-25T05:13:50.026Z,16.10
2018-05-25T05:16:17.483Z,16.10
2018-05-25T05:18:44.946Z,16.10
2018-05-25T05:21:12.388Z,16.20
2018-05-25T05:23:40.611Z,16.20
2018-05-25T05:26:08.050Z,16.20
2018-05-25T05:28:35.504Z,16.30
2018-05-25T05:31:02.973Z,16.30
2018-05-25T05:33:30.434Z,16.30
2018-05-25T05:35:57.875Z,16.30
2018-05-25T05:38:26.105Z,16.30
2018-05-25T05:40:53.567Z,16.30
2018-05-25T05:43:21.005Z,16.50
2018-05-25T05:45:48.475Z,16.50
2018-05-25T05:48:15.930Z,16.60
2018-05-25T05:50:43.389Z,16.70
2018-05-25T05:53:10.851Z,16.60
2018-05-25T05:55:38.316Z,16.60
2018-05-25T05:58:05.756Z,16.70
2018-05-25T06:00:33.960Z,16.60
2018-05-25T06:03:01.407Z,16.60
2018-05-25T06:05:29.044Z,16.70
2018-05-25T06:07:56.502Z,16.80
2018-05-25T06:10:23.984Z,16.80
2018-05-25T06:12:52.236Z,16.80
2018-05-25T06:15:19.694Z,16.80
2018-05-25T06:17:47.157Z,16.80
2018-05-25T06:20:14.607Z,16.80
2018-05-25T06:22:42.886Z,16.90
2018-05-25T06:25:10.348Z,17.00
2018-05-25T06:27:37.797Z,17.10
2018-05-25T06:30:05.248Z,17.20
2018-05-25T06:32:32.705Z,17.20
2018-05-25T06:35:00.167Z,17.30
2018-05-25T06:37:27.603Z,17.30
2018-05-25T06:39:55.833Z,17.20
2018-05-25T06:42:23.306Z,17.20
2018-05-25T06:44:50.774Z,17.20
2018-05-25T06:47:18.237Z,17.30
2018-05-25T06:49:45.684Z,17.40
2018-05-25T06:52:13.147Z,17.40
2018-05-25T06:54:40.607Z,17.40
2018-05-25T06:57:08.075Z,17.60
2018-05-25T06:59:35.534Z,17.60
2018-05-25T07:02:02.988Z,17.50
2018-05-25T07:04:30.437Z,17.50
2018-05-25T07:06:57.900Z,17.60
2018-05-25T07:09:25.359Z,17.60
2018-05-25T07:11:52.822Z,17.70
2018-05-25T07:14:20.281Z,17.70
2018-05-25T07:16:47.744Z,17.70
2018-05-25T07:19:15.206Z,17.70
2018-05-25T07:21:42.659Z,17.80
2018-05-25T07:24:10.128Z,17.90
2018-05-25T07:26:37.595Z,18.00
2018-05-25T07:29:05.056Z,18.10
2018-05-25T07:31:32.546Z,18.20
2018-05-25T07:33:59.982Z,18.30
2018-05-25T07:36:27.446Z,18.10
2018-05-25T07:38:54.908Z,18.10
2018-05-25T07:41:22.369Z,18.30
2018-05-25T07:43:49.808Z,18.50
2018-05-25T07:46:18.037Z,18.70
2018-05-25T07:48:45.499Z,18.70
2018-05-25T07:51:12.960Z,18.80
2018-05-25T07:53:40.414Z,18.70
2018-05-25T07:56:07.872Z,18.80
2018-05-25T07:58:35.327Z,18.80
2018-05-25T08:01:02.791Z,18.80
2018-05-25T08:03:30.248Z,18.90
2018-05-25T08:05:57.705Z,19.00
2018-05-25T08:08:25.177Z,19.00
2018-05-25T08:10:52.630Z,18.90
2018-05-25T08:13:20.092Z,18.90
2018-05-25T08:15:47.542Z,19.10
2018-05-25T08:18:15.772Z,19.20
2018-05-25T08:20:43.223Z,19.20
2018-05-25T08:23:10.684Z,19.40
2018-05-25T08:25:38.133Z,19.30
2018-05-25T08:28:05.601Z,19.30
2018-05-25T08:30:33.073Z,19.50
2018-05-25T08:33:00.535Z,19.60
2018-05-25T08:35:27.985Z,19.70
2018-05-25T08:37:55.474Z,19.60
2018-05-25T08:40:22.914Z,19.70
2018-05-25T08:42:50.394Z,19.80
2018-05-25T08:45:17.855Z,19.90
2018-05-25T08:47:45.300Z,20.20
2018-05-25T08:50:12.761Z,20.20
2018-05-25T08:52:40.241Z,20.20
2018-05-25T08:55:07.735Z,20.30
2018-05-25T08:57:35.162Z,20.40
2018-05-25T09:00:02.624Z,20.40
2018-05-25T09:02:30.097Z,20.40
2018-05-25T09:04:57.561Z,20.60
2018-05-25T09:07:25.023Z,20.80
2018-05-25T09:09:52.485Z,20.90
2018-05-25T09:12:19.972Z,20.70
2018-05-25T09:14:47.404Z,20.70
2018-05-25T09:17:14.862Z,20.80
2018-05-25T09:19:42.313Z,21.00
2018-05-25T09:22:09.765Z,21.20
2018-05-25T09:24:37.227Z,21.30
2018-05-25T09:27:04.687Z,21.50
2018-05-25T09:29:32.159Z,21.60
2018-05-25T09:31:59.617Z,21.70
2018-05-25T09:34:27.077Z,21.70
2018-05-25T09:36:54.539Z,21.70
2018-05-25T09:39:22.001Z,21.70
2018-05-25T09:41:49.463Z,21.70
2018-05-25T09:44:16.925Z,21.90
2018-05-25T09:46:44.387Z,21.90
2018-05-25T09:49:11.851Z,22.00
2018-05-25T09:51:39.316Z,22.10
2018-05-25T09:54:06.785Z,22.20
2018-05-25T09:56:34.237Z,22.50
2018-05-25T09:59:01.701Z,22.60
2018-05-25T10:01:29.148Z,22.60
2018-05-25T10:03:56.625Z,22.70
2018-05-25T10:06:24.088Z,22.90
2018-05-25T10:08:51.549Z,22.70
2018-05-25T10:11:19.012Z,22.80
2018-05-25T10:13:46.460Z,23.00
2018-05-25T10:16:13.921Z,23.10
2018-05-25T10:18:41.377Z,22.90
2018-05-25T10:21:09.607Z,23.30
2018-05-25T10:23:37.071Z,23.30
2018-05-25T10:26:04.525Z,23.00
2018-05-25T10:28:31.975Z,23.10
2018-05-25T10:30:59.437Z,23.50
2018-05-25T10:33:26.873Z,23.50
2018-05-25T10:35:54.359Z,23.60
2018-05-25T10:38:21.815Z,23.20
2018-05-25T10:40:49.289Z,23.30
2018-05-25T10:46:13.170Z,23.90
2018-05-25T10:48:40.631Z,23.90
2018-05-25T10:51:08.069Z,23.90
2018-05-25T10:53:35.520Z,23.90
2018-05-25T10:56:03.064Z,23.70
2018-05-25T10:58:30.436Z,23.60
2018-05-25T11:00:57.896Z,23.80
2018-05-25T11:03:25.345Z,24.10
2018-05-25T11:05:52.800Z,24.30
2018-05-25T11:08:20.246Z,24.30
2018-05-25T11:10:47.709Z,24.50
2018-05-25T11:13:15.153Z,24.80
2018-05-25T11:15:42.622Z,24.60
2018-05-25T11:18:10.061Z,24.60
2018-05-25T11:20:37.527Z,24.60
2018-05-25T11:23:04.972Z,25.00
2018-05-25T11:25:32.431Z,25.10
2018-05-25T11:27:59.893Z,24.90
2018-05-25T11:30:27.375Z,25.00
2018-05-25T11:32:54.815Z,25.00
2018-05-25T11:35:22.262Z,24.80
2018-05-25T11:37:49.720Z,24.80
2018-05-25T11:40:17.155Z,25.00
2018-05-25T11:42:44.613Z,24.80
2018-05-25T11:45:12.066Z,25.10
2018-05-25T11:47:39.544Z,25.40
2018-05-25T11:50:07.017Z,25.60
2018-05-25T11:52:34.453Z,25.60
2018-05-25T11:55:01.889Z,25.40
2018-05-25T11:57:29.330Z,25.40
2018-05-25T11:59:56.772Z,25.30
2018-05-25T12:02:24.224Z,25.60
2018-05-25T12:04:51.674Z,25.10
2018-05-25T12:07:19.138Z,25.50
2018-05-25T12:09:46.577Z,25.60
2018-05-25T12:12:14.046Z,25.40
2018-05-25T12:14:41.494Z,25.80
2018-05-25T12:17:08.950Z,26.10
2018-05-25T12:19:36.404Z,25.70
2018-05-25T12:22:03.861Z,25.90
2018-05-25T12:24:31.310Z,25.90
2018-05-25T12:26:58.759Z,25.80
2018-05-25T12:29:26.207Z,26.10
2018-05-25T12:31:53.676Z,26.60
2018-05-25T12:34:21.139Z,26.10
2018-05-25T12:36:48.582Z,26.10
2018-05-25T12:39:16.031Z,25.80
2018-05-25T12:41:43.482Z,26.10
2018-05-25T12:44:10.957Z,26.20
2018-05-25T12:46:38.398Z,26.20
2018-05-25T12:49:05.900Z,26.60
2018-05-25T12:51:33.348Z,26.80
2018-05-25T13:11:16.343Z,26.90
2018-05-25T13:13:43.799Z,26.10
2018-05-25T13:16:11.262Z,26.10
2018-05-25T13:18:38.714Z,26.10
2018-05-25T13:21:06.153Z,26.70
2018-05-25T13:23:33.607Z,26.90
2018-05-25T13:26:01.049Z,27.10
2018-05-25T13:28:28.497Z,27.10
2018-05-25T13:30:55.943Z,27.10
2018-05-25T13:33:23.390Z,27.20
2018-05-25T13:53:05.652Z,27.60
2018-05-25T13:55:33.102Z,27.60
2018-05-25T13:58:00.560Z,27.20
2018-05-25T14:00:28.062Z,27.30
2018-05-25T14:02:55.568Z,27.70
2018-05-25T14:05:23.025Z,27.90
2018-05-25T14:07:50.464Z,27.80
2018-05-25T14:10:17.906Z,27.80
2018-05-25T14:12:45.381Z,27.80
2018-05-25T14:15:12.898Z,27.90
2018-05-25T14:17:40.340Z,28.00
2018-05-25T14:20:07.800Z,27.90
2018-05-25T14:22:35.250Z,27.90
2018-05-25T14:25:02.708Z,27.70
2018-05-25T14:27:30.158Z,27.30
2018-05-25T14:29:57.622Z,27.50
2018-05-25T14:32:25.077Z,27.40
2018-05-25T14:34:52.524Z,27.50
2018-05-25T14:37:19.983Z,27.90
2018-05-25T14:39:47.441Z,28.20
2018-05-25T14:42:14.882Z,28.30
2018-05-25T14:44:42.378Z,28.40
2018-05-25T14:47:09.857Z,27.60
2018-05-25T14:49:37.269Z,27.90
2018-05-25T15:09:21.446Z,27.40
2018-05-25T15:11:48.922Z,27.60
2018-05-25T15:14:16.370Z,28.20
2018-05-25T15:16:43.835Z,28.20
2018-05-25T15:19:11.286Z,28.40
2018-05-25T15:21:39.412Z,28.50
2018-05-25T15:41:22.064Z,28.40
2018-05-25T15:43:49.503Z,27.70
2018-05-25T15:46:16.951Z,27.70
2018-05-25T15:48:44.387Z,28.30
2018-05-25T15:51:11.863Z,28.40
2018-05-25T15:53:39.345Z,28.30
2018-05-25T15:56:06.807Z,28.60
2018-05-25T15:58:34.270Z,28.70
2018-05-25T16:01:01.765Z,28.60
2018-05-25T16:03:29.180Z,28.00
2018-05-25T16:05:56.642Z,28.30
2018-05-25T16:08:24.084Z,28.30
2018-05-25T16:10:51.540Z,28.10
2018-05-25T16:13:19.001Z,28.00
2018-05-25T16:15:46.470Z,28.40
2018-05-25T16:18:13.913Z,28.40
2018-05-25T16:20:41.386Z,28.60
2018-05-25T16:23:08.836Z,28.90
2018-05-25T16:25:36.291Z,28.20
2018-05-25T16:28:03.748Z,28.20
2018-05-25T16:30:31.191Z,27.80
2018-05-25T16:32:58.639Z,28.30
2018-05-25T16:35:26.089Z,28.50
2018-05-25T16:37:53.532Z,28.20
2018-05-25T16:40:22.174Z,28.00
2018-05-25T16:42:49.609Z,28.10
2018-05-25T16:45:17.052Z,28.30
2018-05-25T16:47:44.499Z,28.40
2018-05-25T16:50:12.025Z,28.20
2018-05-25T16:52:39.405Z,27.80
2018-05-25T16:55:06.844Z,28.00
2018-05-25T16:57:34.303Z,27.80
2018-05-25T17:00:01.752Z,27.90
2018-05-25T17:02:29.199Z,27.50
2018-05-25T17:04:56.652Z,27.60
2018-05-25T17:07:24.097Z,27.70
2018-05-25T17:09:51.553Z,27.90
2018-05-25T17:12:19.020Z,27.50
2018-05-25T17:14:46.461Z,27.50
2018-05-25T17:17:13.924Z,27.50
2018-05-25T17:19:41.391Z,27.40
2018-05-25T17:22:08.836Z,27.20
2018-05-25T17:24:36.295Z,27.00
2018-05-25T17:27:03.725Z,27.10
2018-05-25T17:29:31.191Z,27.20
2018-05-25T17:31:58.629Z,27.00
2018-05-25T17:34:28.101Z,27.00
2018-05-25T17:36:55.530Z,27.20
2018-05-25T17:39:22.988Z,27.20
2018-05-25T17:41:50.446Z,27.10
2018-05-25T17:44:17.900Z,26.90
2018-05-25T17:46:45.338Z,26.60
2018-05-25T17:49:12.835Z,26.60
2018-05-25T17:51:40.275Z,26.70
2018-05-25T17:54:07.731Z,26.70
2018-05-25T17:56:35.187Z,26.60
2018-05-25T17:59:02.645Z,26.60
2018-05-25T18:01:30.084Z,26.30
2018-05-25T18:03:57.577Z,26.20
2018-05-25T18:06:25.035Z,25.80
2018-05-25T18:08:52.517Z,25.70
2018-05-25T18:11:19.966Z,25.70
2018-05-25T18:13:47.423Z,25.50
2018-05-25T18:16:14.880Z,25.10
2018-05-25T18:21:32.830Z,25.00
2018-05-25T18:24:00.293Z,25.00
2018-05-25T18:26:27.741Z,25.00
2018-05-25T18:28:55.193Z,24.90
2018-05-25T18:31:22.646Z,24.90
2018-05-25T18:33:50.118Z,24.70
2018-05-25T18:36:17.616Z,24.80
2018-05-25T18:38:45.033Z,24.80
2018-05-25T18:41:12.476Z,24.60
2018-05-25T18:43:39.940Z,24.40
2018-05-25T18:46:07.400Z,24.40
2018-05-25T18:48:34.827Z,24.40
2018-05-25T18:51:02.277Z,24.40
2018-05-25T18:53:29.723Z,24.40
2018-05-25T18:55:57.182Z,24.20
2018-05-25T18:58:24.631Z,24.10
2018-05-25T19:18:08.113Z,23.30
2018-05-25T19:20:35.560Z,23.30
2018-05-25T19:23:03.009Z,23.40
2018-05-25T19:25:31.940Z,23.10
2018-05-25T19:27:59.368Z,23.10
2018-05-25T19:30:26.838Z,23.00
2018-05-25T19:32:54.333Z,22.90
2018-05-25T19:35:21.863Z,22.90
2018-05-25T19:37:49.349Z,23.00
2018-05-25T19:40:16.805Z,23.00
2018-05-25T19:42:44.234Z,23.10
2018-05-25T19:45:11.839Z,22.70
2018-05-25T19:47:39.304Z,22.60
2018-05-25T19:50:06.742Z,22.60
2018-05-25T19:52:34.210Z,22.50
2018-05-25T19:55:01.657Z,22.40
2018-05-25T19:57:29.116Z,22.40
2018-05-25T19:59:56.595Z,22.40
2018-05-25T20:02:24.040Z,22.30
2018-05-25T20:04:51.491Z,22.40
2018-05-25T20:07:18.939Z,22.40
2018-05-25T20:09:46.392Z,22.30
2018-05-25T20:12:13.866Z,22.30
2018-05-25T20:14:41.316Z,22.20
2018-05-25T20:17:08.780Z,22.10
2018-05-25T20:19:36.274Z,22.00
2018-05-25T20:22:03.732Z,21.90
2018-05-25T20:24:31.160Z,21.70
2018-05-25T20:26:58.614Z,21.60
2018-05-25T20:29:26.056Z,21.50
2018-05-25T20:31:53.528Z,21.60
2018-05-25T20:34:20.984Z,21.60
2018-05-25T20:36:48.433Z,21.50
2018-05-25T20:39:15.880Z,21.50
2018-05-25T20:41:43.346Z,21.50
2018-05-25T20:44:10.792Z,21.40
2018-05-25T20:46:38.259Z,21.50
2018-05-25T20:49:05.709Z,21.50
2018-05-25T20:51:33.164Z,21.40
2018-05-25T20:54:00.609Z,21.30
2018-05-25T20:56:28.070Z,21.00
2018-05-25T20:58:55.517Z,20.80
2018-05-25T21:01:22.969Z,20.70
2018-05-25T21:03:50.424Z,20.70
2018-05-25T21:06:17.861Z,20.80
2018-05-25T21:08:45.317Z,21.10
2018-05-25T21:11:12.792Z,21.30
2018-05-25T21:13:40.239Z,21.30
2018-05-25T21:33:23.062Z,20.80
2018-05-25T21:35:50.517Z,20.70
2018-05-25T21:38:17.968Z,20.50
2018-05-25T21:40:45.397Z,20.40
2018-05-25T21:43:12.852Z,20.40
2018-05-25T21:45:40.299Z,20.30
2018-05-25T21:48:07.752Z,20.30
2018-05-25T21:50:35.202Z,20.40
2018-05-25T21:53:02.664Z,20.30
2018-05-25T21:55:30.117Z,20.10
2018-05-25T21:57:57.574Z,20.10
2018-05-25T22:00:31.705Z,20.20
2018-05-25T22:02:59.186Z,20.50
2018-05-25T22:05:26.701Z,20.60
2018-05-25T22:07:54.164Z,20.80
2018-05-25T22:10:23.575Z,20.70
2018-05-25T22:12:51.019Z,20.40
2018-05-25T22:15:19.250Z,20.30
2018-05-25T22:17:46.707Z,20.20
2018-05-25T22:20:14.182Z,20.00
2018-05-25T22:22:41.633Z,19.90
2018-05-25T22:25:09.096Z,19.90
2018-05-25T22:27:36.566Z,19.80
2018-05-25T22:30:04.015Z,19.70
2018-05-25T22:32:31.518Z,19.70
2018-05-25T22:34:59.007Z,19.60
2018-05-25T22:37:26.489Z,19.70
2018-05-25T22:39:53.979Z,19.60
2018-05-25T22:42:33.316Z,19.90
2018-05-25T22:45:12.917Z,20.00
2018-05-25T22:47:52.197Z,20.20
2018-05-25T22:50:31.654Z,20.30
2018-05-25T22:53:04.269Z,20.20
2018-05-25T22:55:31.754Z,20.10
2018-05-25T22:57:59.225Z,19.70
2018-05-25T23:00:26.722Z,19.50
2018-05-25T23:02:54.322Z,19.50
2018-05-25T23:05:21.932Z,19.50
2018-05-25T23:07:49.386Z,19.50
2018-05-25T23:10:16.848Z,19.50
2018-05-25T23:12:44.299Z,19.40
2018-05-25T23:32:28.967Z,19.60
2018-05-25T23:34:56.432Z,19.80
2018-05-25T23:37:23.896Z,20.00
2018-05-25T23:39:51.397Z,19.80
2018-05-25T23:42:18.845Z,19.50
2018-05-25T23:44:46.297Z,19.30
2018-05-25T23:47:13.740Z,19.10
2018-05-25T23:49:41.205Z,19.00
2018-05-25T23:52:08.657Z,18.80
2018-05-25T23:54:36.109Z,18.70
2018-05-25T23:57:03.577Z,18.90
2018-05-25T23:59:31.040Z,18.90
